Time;durP1;ratioP1;P1;durP2;ratioP2;P2;SDS_P1;SDS_P2;PMS_P1;PMS_P2;Temp;Humidity;BMP_temperature;BMP_pressure;BME280_temperature;BME280_humidity;BME280_pressure;Samples;Min_cycle;Max_cycle;Signal;HPM_P1;HPM_P2
2022/05/04 00:02:24;;;;;;;2.83;0.40;;;13.30;52.90;;;;;;5111973;28;20036;-69
2022/05/04 00:04:50;;;;;;;2.13;0.45;;;13.30;52.90;;;;;;5112765;28;20031;-69
2022/05/04 00:07:15;;;;;;;2.70;0.43;;;13.20;52.80;;;;;;5111777;28;20043;-69
2022/05/04 00:09:41;;;;;;;3.03;0.88;;;13.20;52.80;;;;;;5111539;28;20039;-69
2022/05/04 00:12:07;;;;;;;2.80;0.45;;;13.30;52.90;;;;;;5111476;28;20197;-65
2022/05/04 00:14:32;;;;;;;2.88;0.60;;;13.20;52.90;;;;;;5112722;28;20047;-65
2022/05/04 00:16:58;;;;;;;2.10;0.50;;;13.20;52.90;;;;;;5112705;28;20031;-69
2022/05/04 00:19:24;;;;;;;2.38;0.40;;;13.20;52.80;;;;;;5112539;28;20036;-67
2022/05/04 00:21:49;;;;;;;3.35;0.43;;;13.20;52.80;;;;;;5111186;28;20399;-64
2022/05/04 00:24:20;;;;;;;2.92;0.60;;;13.20;52.80;;;;;;5111220;28;20122;-70
2022/05/04 00:26:46;;;;;;;1.17;0.30;;;13.30;52.90;;;;;;5111622;28;20497;-69
2022/05/04 00:29:12;;;;;;;1.92;0.55;;;13.30;52.80;;;;;;5111142;28;20467;-65
2022/05/04 00:31:38;;;;;;;1.27;0.50;;;13.20;52.80;;;;;;5111521;28;20054;-70
2022/05/04 00:34:07;;;;;;;2.58;0.60;;;13.20;52.80;;;;;;5110940;28;20122;-69
2022/05/04 00:36:33;;;;;;;1.83;0.57;;;13.20;52.90;;;;;;5111336;28;20055;-69
2022/05/04 00:38:59;;;;;;;2.70;0.60;;;13.20;52.80;;;;;;5111376;28;20043;-67
2022/05/04 00:41:25;;;;;;;4.88;0.50;;;13.20;52.80;;;;;;5110628;28;20059;-65
2022/05/04 00:43:52;;;;;;;1.95;0.50;;;13.20;52.80;;;;;;5111049;28;20070;-65
2022/05/04 00:46:19;;;;;;;1.80;0.60;;;13.20;52.80;;;;;;5112223;28;20532;-67
2022/05/04 00:48:44;;;;;;;1.98;0.50;;;13.20;52.80;;;;;;5111016;28;20043;-65
2022/05/04 00:51:10;;;;;;;1.90;0.88;;;13.20;52.80;;;;;;5110912;28;20043;-69
2022/05/04 00:53:38;;;;;;;1.27;0.32;;;13.20;52.80;;;;;;5111294;28;20046;-65
2022/05/04 00:56:04;;;;;;;2.17;0.52;;;13.10;52.70;;;;;;5110890;28;20108;-70
2022/05/04 00:59:02;;;;;;;1.23;0.45;;;13.10;52.70;;;;;;5110885;28;20044;-69
2022/05/04 01:01:18;;;;;;;2.58;0.60;;;13.20;52.80;;;;;;5111879;28;20047;-65
2022/05/04 01:03:43;;;;;;;2.05;0.40;;;13.10;52.70;;;;;;5112157;28;20488;-65
2022/05/04 01:06:09;;;;;;;2.10;0.68;;;13.10;52.70;;;;;;5112308;28;20114;-69
2022/05/04 01:08:38;;;;;;;1.95;0.30;;;13.10;52.70;;;;;;5110818;28;20495;-69
2022/05/04 01:11:04;;;;;;;1.65;0.47;;;13.10;52.70;;;;;;5110733;28;20071;-65
2022/05/04 01:13:30;;;;;;;3.30;0.75;;;13.10;52.70;;;;;;5112161;28;20152;-65
2022/05/04 01:15:59;;;;;;;2.92;0.50;;;13.10;52.70;;;;;;5111000;28;20372;-65
2022/05/04 01:18:25;;;;;;;2.17;0.50;;;13.10;52.60;;;;;;5110908;28;20070;-69
2022/05/04 01:20:50;;;;;;;3.38;0.50;;;13.10;52.60;;;;;;5110712;28;20475;-66
2022/05/04 01:23:16;;;;;;;3.90;0.77;;;13.10;52.60;;;;;;5112042;28;20080;-66
2022/05/04 01:25:42;;;;;;;1.25;0.30;;;13.10;52.60;;;;;;5110660;28;20036;-70
2022/05/04 01:28:11;;;;;;;2.45;0.60;;;13.10;52.60;;;;;;5112011;28;20036;-65
2022/05/04 01:30:37;;;;;;;1.85;0.43;;;13.10;52.60;;;;;;5111906;28;20047;-67
2022/05/04 01:33:03;;;;;;;2.40;0.47;;;13.00;52.60;;;;;;5110588;28;20455;-65
2022/05/04 01:35:29;;;;;;;2.58;0.70;;;13.10;52.60;;;;;;5111813;28;20096;-67
2022/05/04 01:37:55;;;;;;;1.15;0.40;;;13.10;52.60;;;;;;5110750;28;20383;-66
2022/05/04 01:40:21;;;;;;;2.10;0.50;;;13.10;52.60;;;;;;5110262;28;20419;-70
2022/05/04 01:42:49;;;;;;;2.20;0.57;;;13.00;52.50;;;;;;5111698;28;20040;-65
2022/05/04 01:45:15;;;;;;;1.45;0.50;;;13.00;52.50;;;;;;5110455;28;20042;-66
2022/05/04 01:47:40;;;;;;;2.40;0.50;;;13.00;52.50;;;;;;5110958;28;20036;-69
2022/05/04 01:50:07;;;;;;;2.65;0.60;;;13.00;52.50;;;;;;5114250;28;20086;-70
2022/05/04 01:52:32;;;;;;;2.08;0.50;;;12.90;52.50;;;;;;5116825;28;20067;-65
2022/05/04 01:55:00;;;;;;;1.52;0.45;;;13.00;52.60;;;;;;5115414;28;20384;-69
2022/05/04 01:57:27;;;;;;;3.25;0.70;;;13.00;53.30;;;;;;5097858;28;20035;-65
2022/05/04 01:59:53;;;;;;;3.20;0.60;;;13.00;52.60;;;;;;5115514;28;20046;-64
2022/05/04 02:02:19;;;;;;;3.13;0.80;;;13.00;52.60;;;;;;5114230;28;20122;-70
2022/05/04 02:04:45;;;;;;;1.40;0.70;;;13.00;52.50;;;;;;5113956;28;20046;-70
2022/05/04 02:07:12;;;;;;;2.58;1.00;;;13.00;52.60;;;;;;5114012;28;20043;-69
2022/05/04 02:09:39;;;;;;;2.13;0.43;;;13.00;52.60;;;;;;5114153;28;20638;-70
2022/05/04 02:12:06;;;;;;;1.52;0.60;;;13.00;52.60;;;;;;5115020;28;20066;-70
2022/05/04 02:14:33;;;;;;;2.25;0.50;;;13.00;52.60;;;;;;5115177;28;20074;-67
2022/05/04 02:16:59;;;;;;;1.90;0.55;;;13.00;52.60;;;;;;5114045;28;20430;-69
2022/05/04 02:19:25;;;;;;;2.35;0.57;;;13.00;52.60;;;;;;5113596;28;20054;-65
2022/05/04 02:21:50;;;;;;;2.10;0.40;;;13.00;52.50;;;;;;5113572;28;20035;-69
2022/05/04 02:24:16;;;;;;;3.78;0.60;;;13.00;52.60;;;;;;5114739;27;20035;-67
2022/05/04 02:26:42;;;;;;;2.53;0.40;;;13.00;52.50;;;;;;5114851;28;20032;-69
2022/05/04 02:29:07;;;;;;;2.00;0.60;;;13.00;52.50;;;;;;5113385;28;20031;-70
2022/05/04 02:31:33;;;;;;;1.77;0.85;;;13.00;52.50;;;;;;5113433;28;20040;-65
2022/05/04 02:33:59;;;;;;;1.65;0.60;;;13.00;52.50;;;;;;5113381;28;20044;-65
2022/05/04 02:39:13;;;;;;;1.35;0.75;;;13.00;52.60;;;;;;5114244;28;20039;-69
2022/05/04 02:41:45;;;;;;;1.52;0.38;;;13.00;52.60;;;;;;5114224;28;20044;-64
2022/05/04 02:44:11;;;;;;;2.45;0.60;;;13.00;52.60;;;;;;5114437;28;20328;-65
2022/05/04 02:46:37;;;;;;;1.75;0.40;;;13.00;52.50;;;;;;5113268;28;20692;-65
2022/05/04 02:49:02;;;;;;;1.92;0.50;;;12.90;52.50;;;;;;5113326;28;20043;-69
2022/05/04 02:51:31;;;;;;;2.00;0.50;;;12.90;52.50;;;;;;5113035;28;20058;-64
2022/05/04 02:53:59;;;;;;;2.58;0.52;;;13.00;52.60;;;;;;5113167;28;20044;-65
2022/05/04 02:56:25;;;;;;;3.60;0.50;;;13.00;52.60;;;;;;5113189;28;20563;-65
2022/05/04 02:58:53;;;;;;;2.72;0.60;;;12.90;52.60;;;;;;5112787;28;20475;-65
2022/05/04 03:04:06;;;;;;;1.83;0.75;;;12.90;52.60;;;;;;5112787;28;20104;-65
2022/05/04 03:06:33;;;;;;;1.50;0.55;;;12.90;52.60;;;;;;5113009;28;20047;-65
2022/05/04 03:08:58;;;;;;;1.65;0.40;;;12.90;52.70;;;;;;5112648;28;20028;-65
2022/05/04 03:11:55;;;;;;;2.83;0.88;;;12.90;53.40;;;;;;5112535;28;20055;-69
2022/05/04 03:14:10;;;;;;;3.33;0.70;;;12.90;52.60;;;;;;5113709;28;20040;-65
2022/05/04 03:16:36;;;;;;;3.65;0.68;;;12.90;52.70;;;;;;5112438;28;20043;-68
2022/05/04 03:19:03;;;;;;;1.60;0.45;;;12.90;52.70;;;;;;5112513;28;20104;-69
2022/05/04 03:21:29;;;;;;;3.80;1.23;;;12.90;52.70;;;;;;5112314;28;20415;-70
2022/05/04 03:23:55;;;;;;;1.50;0.52;;;12.90;52.70;;;;;;5112399;28;20036;-67
2022/05/04 03:26:21;;;;;;;2.28;0.50;;;12.90;52.70;;;;;;5112480;28;20027;-67
2022/05/04 03:28:46;;;;;;;1.77;0.55;;;12.90;52.80;;;;;;5112502;28;20383;-69
2022/05/04 03:31:12;;;;;;;2.28;0.70;;;12.90;52.80;;;;;;5113646;28;20501;-69
2022/05/04 03:33:38;;;;;;;5.97;1.13;;;12.90;52.80;;;;;;5112240;28;20035;-70
2022/05/04 03:36:04;;;;;;;2.17;0.63;;;12.90;52.80;;;;;;5112012;28;20096;-65
2022/05/04 03:38:33;;;;;;;1.98;0.57;;;12.80;52.80;;;;;;5112187;28;20077;-65
2022/05/04 03:40:59;;;;;;;2.92;0.43;;;12.80;52.80;;;;;;5111643;28;20092;-64
2022/05/04 03:43:24;;;;;;;2.35;0.63;;;12.80;52.80;;;;;;5111948;28;20082;-65
2022/05/04 03:45:50;;;;;;;4.00;0.80;;;12.90;52.90;;;;;;5113067;28;20074;-68
2022/05/04 03:48:16;;;;;;;1.90;0.65;;;12.80;52.90;;;;;;5113097;28;20050;-69
2022/05/04 03:50:44;;;;;;;1.95;0.50;;;12.80;52.90;;;;;;5112104;28;20045;-70
2022/05/04 03:53:10;;;;;;;2.13;0.50;;;12.90;53.00;;;;;;5113199;28;20372;-69
2022/05/04 03:55:36;;;;;;;2.40;0.68;;;12.90;53.00;;;;;;5111794;28;20123;-69
2022/05/04 03:58:01;;;;;;;4.53;0.70;;;12.90;53.00;;;;;;5111695;28;20050;-69
2022/05/04 04:00:27;;;;;;;4.18;0.73;;;12.80;53.00;;;;;;5112820;28;20053;-69
2022/05/04 04:02:53;;;;;;;2.03;0.40;;;12.80;53.10;;;;;;5111755;28;20492;-65
2022/05/04 04:05:19;;;;;;;1.98;0.40;;;12.80;53.10;;;;;;5112896;28;20045;-65
2022/05/04 04:07:44;;;;;;;1.30;0.63;;;12.80;53.10;;;;;;5112860;28;20040;-69
2022/05/04 04:10:10;;;;;;;2.33;0.60;;;12.80;53.10;;;;;;5111183;28;20036;-65
2022/05/04 04:12:36;;;;;;;1.45;0.50;;;12.80;53.20;;;;;;5111328;28;20043;-64
2022/05/04 04:15:02;;;;;;;1.98;0.50;;;12.80;53.20;;;;;;5111495;28;20039;-69
2022/05/04 04:17:27;;;;;;;2.85;0.50;;;12.80;53.20;;;;;;5111588;28;20088;-68
2022/05/04 04:22:38;;;;;;;2.35;0.80;;;12.80;53.30;;;;;;5111319;28;20051;-71
2022/05/04 04:25:04;;;;;;;2.72;0.60;;;12.80;53.30;;;;;;5111545;28;20088;-65
2022/05/04 04:27:32;;;;;;;2.60;0.77;;;12.80;53.30;;;;;;5111461;28;20032;-69
2022/05/04 04:29:58;;;;;;;1.60;0.40;;;12.80;53.30;;;;;;5111258;28;20142;-69
2022/05/04 04:32:24;;;;;;;2.67;0.60;;;12.80;53.30;;;;;;5112525;28;20114;-70
2022/05/04 04:34:49;;;;;;;1.85;0.40;;;12.80;53.30;;;;;;5112585;28;20036;-64
2022/05/04 04:37:15;;;;;;;2.10;0.60;;;12.80;53.30;;;;;;5111106;28;20036;-64
2022/05/04 04:39:41;;;;;;;2.60;0.85;;;12.80;53.30;;;;;;5112535;28;20035;-65
2022/05/04 04:42:07;;;;;;;2.20;0.60;;;12.80;53.30;;;;;;5110933;28;20040;-65
2022/05/04 04:44:33;;;;;;;2.40;0.60;;;12.80;53.30;;;;;;5111328;28;20455;-65
2022/05/04 04:46:58;;;;;;;1.73;0.50;;;12.80;53.30;;;;;;5111255;28;20069;-69
2022/05/04 04:49:25;;;;;;;4.53;0.93;;;12.80;53.30;;;;;;5111035;28;20073;-69
2022/05/04 04:51:51;;;;;;;2.67;0.68;;;12.80;53.30;;;;;;5111332;28;20098;-65
2022/05/04 04:54:17;;;;;;;1.55;0.60;;;12.80;53.30;;;;;;5112296;28;20503;-70
2022/05/04 04:56:45;;;;;;;2.50;0.30;;;12.80;53.20;;;;;;5093964;28;20134;-65
2022/05/04 04:59:11;;;;;;;1.65;0.60;;;12.80;53.20;;;;;;5110824;28;20122;-69
2022/05/04 05:01:36;;;;;;;4.38;0.60;;;12.80;53.20;;;;;;5110853;28;20122;-69
2022/05/04 05:04:02;;;;;;;1.70;0.50;;;12.80;53.20;;;;;;5110793;28;20040;-66
2022/05/04 05:06:30;;;;;;;1.77;0.60;;;12.80;53.20;;;;;;5110888;28;20059;-65
2022/05/04 05:08:55;;;;;;;2.05;0.60;;;12.80;53.10;;;;;;5110811;28;20135;-65
2022/05/04 05:11:24;;;;;;;2.10;0.57;;;12.80;53.10;;;;;;5112242;28;20127;-69
2022/05/04 05:16:38;;;;;;;2.22;0.60;;;12.90;53.10;;;;;;5110868;28;20118;-64
2022/05/04 05:19:03;;;;;;;2.08;0.50;;;12.80;53.00;;;;;;5110712;28;20114;-69
2022/05/04 05:21:29;;;;;;;3.30;0.63;;;12.90;53.00;;;;;;5110674;28;20121;-69
2022/05/04 05:23:55;;;;;;;1.70;0.43;;;12.90;52.90;;;;;;5113397;28;20036;-65
2022/05/04 05:26:20;;;;;;;1.52;0.40;;;12.80;52.90;;;;;;5114958;28;20077;-71
2022/05/04 05:28:47;;;;;;;2.95;0.98;;;12.90;52.80;;;;;;5114539;28;20082;-64
2022/05/04 05:31:13;;;;;;;4.05;0.60;;;12.80;52.70;;;;;;5114557;28;20044;-66
2022/05/04 05:33:40;;;;;;;3.10;0.52;;;12.80;52.70;;;;;;5114458;28;20101;-69
2022/05/04 05:36:06;;;;;;;1.90;0.70;;;12.80;52.60;;;;;;5114435;28;20041;-69
2022/05/04 05:38:31;;;;;;;1.83;0.40;;;12.90;52.60;;;;;;5115670;28;20096;-64
2022/05/04 05:41:01;;;;;;;1.98;0.50;;;12.90;52.60;;;;;;5097067;28;20403;-69
2022/05/04 05:43:28;;;;;;;2.42;0.73;;;12.90;52.50;;;;;;5114633;28;20119;-66
2022/05/04 05:45:54;;;;;;;3.22;0.80;;;13.00;52.50;;;;;;5114198;28;20047;-69
2022/05/04 05:48:20;;;;;;;1.83;0.60;;;12.90;52.40;;;;;;5097547;28;20092;-68
2022/05/04 05:50:47;;;;;;;1.90;0.40;;;12.90;52.40;;;;;;5115355;28;20044;-65
2022/05/04 05:53:14;;;;;;;2.30;0.40;;;12.90;52.30;;;;;;5114176;28;20486;-65
2022/05/04 05:55:40;;;;;;;2.50;0.40;;;13.00;52.30;;;;;;5115268;28;20511;-69
2022/05/04 05:58:06;;;;;;;1.23;0.60;;;13.00;52.20;;;;;;5114362;28;20089;-65
2022/05/04 06:00:32;;;;;;;3.30;0.50;;;13.00;52.10;;;;;;5114130;28;20486;-64
2022/05/04 06:02:58;;;;;;;2.70;0.40;;;13.00;52.00;;;;;;5113939;28;20038;-69
2022/05/04 06:05:24;;;;;;;2.13;0.47;;;13.10;52.00;;;;;;5113817;28;20043;-65
2022/05/04 06:07:49;;;;;;;3.20;0.50;;;13.00;51.90;;;;;;5114141;28;20040;-69
2022/05/04 06:10:15;;;;;;;1.67;0.43;;;13.10;51.80;;;;;;5113607;28;20040;-69
2022/05/04 06:12:41;;;;;;;2.90;0.40;;;13.10;51.70;;;;;;5113885;28;20053;-65
2022/05/04 06:15:08;;;;;;;2.80;0.32;;;13.10;51.60;;;;;;5114941;28;20120;-64
2022/05/04 06:17:34;;;;;;;3.03;0.60;;;13.10;51.60;;;;;;5113676;28;20053;-71
2022/05/04 06:20:00;;;;;;;2.65;0.60;;;13.10;51.50;;;;;;5113888;28;20394;-71
2022/05/04 06:22:25;;;;;;;1.30;0.32;;;13.10;51.40;;;;;;5113535;28;20035;-64
2022/05/04 06:24:51;;;;;;;2.47;0.50;;;13.20;51.40;;;;;;5113565;28;20043;-71
2022/05/04 06:27:17;;;;;;;2.35;0.57;;;13.20;51.30;;;;;;5113649;28;20044;-65
2022/05/04 06:35:16;;;;;;;2.70;0.45;;;13.20;51.00;;;;;;5112939;28;20131;-70
2022/05/04 06:37:45;;;;;;;2.67;0.40;;;13.20;51.00;;;;;;5113538;28;20123;-69
2022/05/04 06:40:11;;;;;;;2.58;0.63;;;13.20;50.90;;;;;;5112992;28;20483;-65
2022/05/04 06:42:37;;;;;;;4.38;0.60;;;13.20;50.80;;;;;;5114420;28;20048;-64
2022/05/04 06:45:04;;;;;;;2.75;0.50;;;13.30;50.70;;;;;;5114435;28;20471;-65
2022/05/04 06:47:30;;;;;;;1.50;0.45;;;13.30;50.70;;;;;;5114362;28;20036;-69
2022/05/04 06:49:55;;;;;;;2.75;0.43;;;13.30;50.60;;;;;;5113091;28;20493;-65
2022/05/04 06:52:24;;;;;;;1.30;0.60;;;13.40;50.50;;;;;;5112889;28;20047;-70
2022/05/04 06:54:50;;;;;;;3.08;0.60;;;13.40;50.40;;;;;;5113045;28;20040;-69
2022/05/04 06:57:16;;;;;;;1.80;0.40;;;13.40;50.30;;;;;;5114294;28;20441;-64
2022/05/04 06:59:43;;;;;;;1.58;0.50;;;13.40;50.20;;;;;;5112884;28;20052;-69
2022/05/04 07:02:08;;;;;;;1.48;0.50;;;13.40;50.10;;;;;;5112721;28;20100;-69
2022/05/04 07:04:34;;;;;;;2.33;0.40;;;13.40;50.10;;;;;;5112778;28;20043;-70
2022/05/04 07:07:00;;;;;;;1.83;0.60;;;13.50;50.00;;;;;;5112891;28;20143;-69
2022/05/04 07:09:28;;;;;;;2.63;0.70;;;13.50;49.90;;;;;;5112701;28;20044;-65
2022/05/04 07:11:54;;;;;;;2.78;0.70;;;13.50;49.80;;;;;;5113930;28;20540;-69
2022/05/04 07:14:20;;;;;;;1.35;0.47;;;13.50;49.70;;;;;;5113872;28;20028;-70
2022/05/04 07:16:46;;;;;;;1.98;0.75;;;13.50;49.70;;;;;;5112761;28;20038;-69
2022/05/04 07:19:13;;;;;;;0.93;0.30;;;13.50;49.60;;;;;;5113802;28;20390;-65
2022/05/04 07:21:39;;;;;;;1.70;0.38;;;13.60;49.60;;;;;;5112399;28;20040;-70
2022/05/04 07:24:05;;;;;;;1.63;0.40;;;13.60;49.50;;;;;;5112634;28;20489;-69
2022/05/04 07:26:31;;;;;;;2.05;0.43;;;13.60;49.40;;;;;;5112402;28;20058;-69
2022/05/04 07:28:57;;;;;;;3.83;0.50;;;13.60;49.30;;;;;;5112229;28;20043;-68
2022/05/04 07:31:23;;;;;;;2.50;0.40;;;13.70;49.30;;;;;;5113532;28;20048;-65
2022/05/04 07:33:48;;;;;;;2.67;0.70;;;13.70;49.20;;;;;;5113539;28;20051;-65
2022/05/04 07:36:14;;;;;;;2.60;0.60;;;13.70;49.20;;;;;;5112075;28;20479;-67
2022/05/04 07:38:43;;;;;;;1.65;0.38;;;13.60;49.10;;;;;;5112017;28;20146;-65
2022/05/04 07:43:54;;;;;;;1.15;0.70;;;13.70;49.10;;;;;;5112059;28;20046;-70
2022/05/04 07:46:20;;;;;;;1.88;0.40;;;13.70;49.00;;;;;;5112545;28;20387;-64
2022/05/04 07:48:45;;;;;;;1.15;0.30;;;13.70;48.80;;;;;;5112194;28;20075;-69
2022/05/04 07:51:11;;;;;;;1.58;0.40;;;13.80;48.80;;;;;;5112165;28;21013;-67
2022/05/04 07:53:37;;;;;;;1.15;0.30;;;13.80;48.60;;;;;;5111848;28;20093;-70
2022/05/04 07:56:03;;;;;;;1.35;0.40;;;13.80;48.50;;;;;;5113106;28;20043;-65
2022/05/04 07:58:29;;;;;;;2.42;0.60;;;13.90;48.50;;;;;;5111898;28;20040;-64
2022/05/04 08:06:27;;;;;;;3.40;0.82;;;14.00;48.10;;;;;;5111679;28;20399;-65
2022/05/04 08:08:53;;;;;;;1.38;0.30;;;14.00;48.00;;;;;;5111528;28;20043;-70
2022/05/04 08:11:19;;;;;;;2.83;0.60;;;14.00;47.90;;;;;;5111453;28;20126;-67
2022/05/04 08:13:44;;;;;;;3.50;1.20;;;14.00;47.80;;;;;;5111408;28;20043;-69
2022/05/04 08:16:11;;;;;;;2.65;0.70;;;14.10;47.80;;;;;;5112616;28;20038;-64
2022/05/04 08:18:40;;;;;;;2.38;0.50;;;14.10;47.70;;;;;;5111434;28;20057;-69
2022/05/04 08:21:06;;;;;;;2.50;0.93;;;14.20;47.60;;;;;;5111275;28;20039;-64
2022/05/04 08:23:32;;;;;;;1.67;0.50;;;14.20;47.60;;;;;;5111306;28;20032;-65
2022/05/04 08:25:58;;;;;;;2.60;0.50;;;14.20;48.30;;;;;;5112614;28;20042;-66
2022/05/04 08:28:24;;;;;;;2.67;0.50;;;14.20;47.50;;;;;;5112614;28;20505;-69
2022/05/04 08:30:49;;;;;;;1.83;0.50;;;14.20;47.30;;;;;;5111498;28;20138;-70
2022/05/04 08:33:15;;;;;;;2.35;0.50;;;14.30;47.20;;;;;;5111216;28;20036;-72
2022/05/04 08:35:41;;;;;;;2.13;0.40;;;14.30;47.10;;;;;;5112411;28;20043;-69
2022/05/04 08:38:07;;;;;;;2.28;0.82;;;14.30;46.90;;;;;;5111339;28;20054;-65
2022/05/04 08:40:36;;;;;;;1.88;0.40;;;14.30;46.90;;;;;;5110904;28;20043;-69
2022/05/04 08:43:07;;;;;;;2.85;0.40;;;14.40;47.00;;;;;;5111080;28;20533;-65
2022/05/04 08:45:37;;;;;;;1.45;0.38;;;14.40;46.90;;;;;;5112217;28;20043;-65
2022/05/04 08:48:05;;;;;;;1.23;0.47;;;14.40;46.80;;;;;;5112361;28;20036;-69
2022/05/04 08:50:32;;;;;;;2.35;0.40;;;14.40;46.80;;;;;;5110899;28;20040;-68
2022/05/04 08:53:00;;;;;;;3.28;0.70;;;14.40;46.80;;;;;;5112431;28;20364;-64
2022/05/04 08:55:26;;;;;;;1.42;0.40;;;14.50;46.80;;;;;;5112192;28;20244;-65
2022/05/04 08:57:54;;;;;;;1.58;0.55;;;14.50;46.60;;;;;;5113875;28;20118;-64
2022/05/04 09:00:24;;;;;;;1.10;0.30;;;14.60;46.50;;;;;;5115175;28;20044;-69
2022/05/04 09:02:50;;;;;;;1.23;0.40;;;14.80;46.20;;;;;;5115150;28;20549;-64
2022/05/04 09:05:19;;;;;;;1.13;0.55;;;14.80;46.00;;;;;;5115349;28;20032;-69
2022/05/04 09:07:48;;;;;;;1.58;0.50;;;14.80;46.00;;;;;;5115000;28;20178;-65
2022/05/04 09:13:02;;;;;;;3.53;0.55;;;15.10;45.40;;;;;;5109785;27;20422;-67
2022/05/04 09:15:30;;;;;;;1.70;0.30;;;15.20;45.00;;;;;;5108858;28;20499;-65
2022/05/04 09:17:59;;;;;;;1.77;0.40;;;15.40;44.80;;;;;;5108397;28;20567;-63
2022/05/04 09:21:04;;;;;;;2.25;0.82;;;15.40;44.70;;;;;;5110122;28;20111;-63
2022/05/04 09:23:14;;;;;;;1.45;0.60;;;15.40;44.50;;;;;;5108178;28;20051;-64
2022/05/04 09:25:40;;;;;;;3.47;0.50;;;15.50;44.40;;;;;;5108565;28;20044;-63
2022/05/04 09:28:10;;;;;;;2.72;0.47;;;15.40;44.40;;;;;;5108565;28;20036;-62
2022/05/04 09:30:38;;;;;;;1.47;0.30;;;15.40;44.30;;;;;;5108326;28;20088;-63
2022/05/04 09:33:10;;;;;;;3.67;1.08;;;15.40;44.40;;;;;;5109523;28;20530;-68
2022/05/04 09:35:41;;;;;;;3.40;0.40;;;15.30;44.60;;;;;;5109411;28;20044;-68
2022/05/04 09:46:39;;;;;;;1.15;0.40;;;15.50;44.20;;;;;;5107143;28;20475;-63
2022/05/04 09:49:28;;;;;;;3.47;0.80;;;15.60;44.00;;;;;;5106018;28;20054;-67
2022/05/04 09:51:54;;;;;;;6.13;1.10;;;15.60;44.20;;;;;;5106201;28;20044;-64
2022/05/04 09:57:04;;;;;;;4.00;0.60;;;15.70;44.40;;;;;;5128599;27;20379;-69
2022/05/04 09:59:31;;;;;;;3.83;0.40;;;16.00;45.00;;;;;;5127728;28;20039;-68
2022/05/04 10:01:59;;;;;;;2.63;0.88;;;16.10;45.20;;;;;;5127336;28;20042;-68
2022/05/04 10:04:26;;;;;;;18.20;1.65;;;16.20;45.20;;;;;;5127144;28;20047;-67
2022/05/04 10:06:54;;;;;;;4.60;0.65;;;16.30;45.30;;;;;;5126397;28;20054;-64
2022/05/04 10:09:22;;;;;;;5.88;0.88;;;16.30;45.40;;;;;;5127782;28;20039;-63
2022/05/04 10:11:56;;;;;;;6.18;0.70;;;16.40;45.40;;;;;;5126982;28;20110;-70
2022/05/04 10:14:23;;;;;;;15.30;1.23;;;16.50;45.60;;;;;;5129130;27;20067;-66
2022/05/04 10:17:12;;;;;;;10.90;1.27;;;16.50;45.60;;;;;;5127413;27;20051;-67
2022/05/04 10:22:26;;;;;;;8.43;1.27;;;16.50;45.70;;;;;;5157288;27;19918;-67
2022/05/04 10:24:55;;;;;;;31.50;5.18;;;16.50;45.60;;;;;;5110650;28;20040;-70
2022/05/04 10:27:23;;;;;;;11.38;2.50;;;16.50;45.70;;;;;;5110791;28;20050;-64
2022/05/04 10:30:30;;;;;;;39.83;7.95;;;16.50;45.80;;;;;;5131476;27;20041;-62
2022/05/04 10:32:47;;;;;;;17.52;2.67;;;16.50;45.90;;;;;;5122414;28;20060;-69
2022/05/04 10:35:34;;;;;;;12.70;1.75;;;16.50;45.80;;;;;;5129572;27;20046;-67
2022/05/04 10:46:22;;;;;;;28.15;3.78;;;16.50;45.70;;;;;;5109444;27;20296;-63
2022/05/04 10:49:02;;;;;;;17.00;1.98;;;16.40;45.80;;;;;;5107148;28;20085;-64
2022/05/04 10:51:30;;;;;;;5.18;1.10;;;16.40;45.90;;;;;;5104421;28;20544;-65
2022/05/04 10:56:54;;;;;;;16.85;1.90;;;16.40;46.00;;;;;;5088470;27;20424;-64
2022/05/04 10:59:36;;;;;;;7.80;1.35;;;16.40;46.10;;;;;;5086813;28;20063;-67
2022/05/04 11:02:04;;;;;;;9.45;0.75;;;16.40;46.20;;;;;;5088003;28;20036;-72
2022/05/04 11:04:32;;;;;;;2.17;0.65;;;16.40;46.10;;;;;;5087729;28;20048;-68
2022/05/04 11:09:43;;;;;;;3.13;0.45;;;16.40;46.10;;;;;;5073545;27;20417;-64
2022/05/04 11:12:11;;;;;;;5.03;0.82;;;16.40;46.30;;;;;;5069591;28;20484;-68
2022/05/04 11:14:38;;;;;;;10.20;1.92;;;16.40;46.40;;;;;;5100914;28;20036;-64
2022/05/04 11:17:12;;;;;;;6.38;0.75;;;16.40;46.40;;;;;;5073080;28;20048;-71
2022/05/04 11:19:43;;;;;;;5.40;0.85;;;16.40;46.60;;;;;;5072038;28;20336;-62
2022/05/04 11:22:09;;;;;;;4.20;0.50;;;16.40;46.60;;;;;;5068237;28;20048;-62
2022/05/04 11:24:35;;;;;;;4.80;0.70;;;16.30;46.50;;;;;;5067796;28;20045;-63
2022/05/04 11:27:01;;;;;;;5.65;0.60;;;16.30;46.50;;;;;;5067762;28;20040;-63
2022/05/04 11:29:28;;;;;;;2.95;0.50;;;16.20;46.60;;;;;;5066713;28;20044;-63
2022/05/04 11:31:57;;;;;;;11.10;0.98;;;16.20;46.70;;;;;;5066763;28;20072;-64
2022/05/04 11:34:26;;;;;;;7.10;0.70;;;16.10;46.70;;;;;;5067461;28;20072;-62
2022/05/04 11:36:53;;;;;;;4.95;0.57;;;16.10;46.70;;;;;;5051140;28;20120;-67
2022/05/04 11:39:25;;;;;;;5.38;0.80;;;16.00;46.60;;;;;;5068816;28;20550;-62
2022/05/04 11:41:52;;;;;;;4.93;0.75;;;16.00;46.60;;;;;;5067561;28;20040;-63
2022/05/04 11:44:21;;;;;;;4.68;0.55;;;15.90;46.60;;;;;;5067256;28;20119;-63
2022/05/04 11:46:47;;;;;;;3.00;0.85;;;15.90;46.60;;;;;;5067243;28;20048;-63
2022/05/04 11:49:14;;;;;;;4.20;0.60;;;15.90;46.70;;;;;;5067179;28;20052;-67
2022/05/04 11:51:40;;;;;;;4.18;0.65;;;15.80;46.60;;;;;;5068489;28;20063;-63
2022/05/04 11:54:07;;;;;;;3.13;0.88;;;15.80;46.70;;;;;;5068819;28;20037;-67
2022/05/04 11:56:34;;;;;;;4.45;0.60;;;15.80;46.70;;;;;;5067021;28;20396;-63
2022/05/04 11:59:00;;;;;;;3.08;0.55;;;15.80;46.70;;;;;;5068231;28;20087;-62
2022/05/04 12:01:26;;;;;;;6.15;0.75;;;15.70;46.60;;;;;;5068176;28;20037;-63
2022/05/04 12:03:53;;;;;;;3.28;0.40;;;15.70;46.60;;;;;;5068276;28;20029;-67
2022/05/04 12:06:19;;;;;;;2.65;0.60;;;15.70;46.60;;;;;;5067991;28;20045;-62
2022/05/04 12:08:46;;;;;;;3.17;0.77;;;15.70;46.60;;;;;;5067823;28;20454;-67
2022/05/04 12:11:12;;;;;;;3.20;0.40;;;15.70;46.60;;;;;;5067999;28;20056;-67
2022/05/04 12:13:40;;;;;;;2.83;0.68;;;15.70;46.70;;;;;;5066529;28;20041;-64
2022/05/04 12:16:07;;;;;;;3.63;0.50;;;15.70;46.60;;;;;;5066900;28;20041;-67
2022/05/04 12:18:35;;;;;;;2.80;0.60;;;15.70;46.60;;;;;;5067737;28;20040;-65
2022/05/04 12:21:07;;;;;;;3.47;0.40;;;15.70;46.60;;;;;;5053361;28;20067;-64
2022/05/04 12:23:35;;;;;;;3.30;0.60;;;15.70;46.60;;;;;;5054474;28;20045;-67
2022/05/04 12:26:02;;;;;;;2.70;0.75;;;15.70;46.60;;;;;;5053503;28;20029;-65
2022/05/04 12:28:28;;;;;;;2.85;1.13;;;15.60;46.50;;;;;;5053036;28;20041;-64
2022/05/04 12:33:40;;;;;;;2.30;0.65;;;15.60;46.60;;;;;;5054445;28;20099;-65
2022/05/04 12:36:08;;;;;;;4.82;0.93;;;15.60;46.50;;;;;;5053134;28;20045;-63
2022/05/04 12:38:37;;;;;;;2.70;0.68;;;15.60;46.50;;;;;;5053236;28;20049;-69
2022/05/04 12:41:04;;;;;;;1.95;0.60;;;15.60;46.50;;;;;;5054173;28;20052;-67
2022/05/04 12:43:36;;;;;;;3.83;0.70;;;15.60;46.50;;;;;;5052050;28;20037;-69
2022/05/04 12:46:07;;;;;;;1.42;0.43;;;15.60;46.50;;;;;;5053117;28;20052;-62
2022/05/04 12:48:32;;;;;;;;;;;15.70;46.90;;;;;;5053257;28;20116;-69
2022/05/04 12:50:58;;;;;;;2.78;0.88;;;15.80;47.40;;;;;;5052569;28;20309;-67
2022/05/04 12:53:27;;;;;;;3.45;0.68;;;15.90;47.10;;;;;;5053496;28;20119;-62
2022/05/04 12:58:40;;;;;;;2.00;0.52;;;16.10;47.40;;;;;;5056153;28;20048;-62
2022/05/04 13:01:06;;;;;;;9.27;1.23;;;16.20;47.40;;;;;;5070874;28;20066;-63
2022/05/04 13:03:33;;;;;;;2.63;0.43;;;16.20;47.30;;;;;;5072461;28;20504;-62
2022/05/04 13:05:59;;;;;;;4.50;0.60;;;16.30;47.30;;;;;;5062167;28;20041;-62
2022/05/04 13:08:25;;;;;;;5.22;0.40;;;16.40;47.20;;;;;;5061261;28;20041;-63
2022/05/04 13:10:51;;;;;;;2.10;0.55;;;16.40;47.00;;;;;;5067734;28;20037;-68
2022/05/04 13:13:20;;;;;;;1.80;0.40;;;16.40;46.90;;;;;;5070485;28;20484;-63
2022/05/04 13:15:51;;;;;;;3.47;0.73;;;16.30;46.90;;;;;;5071064;28;20553;-68
2022/05/04 13:18:18;;;;;;;1.00;0.40;;;16.30;46.90;;;;;;5071951;28;20550;-69
2022/05/04 13:20:44;;;;;;;2.55;0.40;;;16.20;46.90;;;;;;5072084;28;20561;-68
2022/05/04 13:23:10;;;;;;;2.20;0.35;;;16.20;46.90;;;;;;5072420;28;20103;-67
2022/05/04 13:25:36;;;;;;;2.85;0.70;;;16.20;46.90;;;;;;5072339;28;20045;-65
2022/05/04 13:28:03;;;;;;;4.82;0.50;;;16.10;46.90;;;;;;5073297;28;20056;-65
2022/05/04 13:30:28;;;;;;;2.83;0.35;;;16.10;47.00;;;;;;5071922;28;20071;-68
2022/05/04 13:32:54;;;;;;;2.72;0.50;;;16.10;47.00;;;;;;5072607;28;20110;-69
2022/05/04 13:35:21;;;;;;;3.85;0.63;;;16.00;47.00;;;;;;5072059;28;20474;-68
2022/05/04 13:37:48;;;;;;;1.23;0.60;;;16.00;47.00;;;;;;5072450;28;20055;-68
2022/05/04 13:40:14;;;;;;;1.55;0.30;;;16.00;47.00;;;;;;5072062;28;20074;-68
2022/05/04 13:42:41;;;;;;;1.98;0.40;;;16.00;47.00;;;;;;5073196;28;20052;-68
2022/05/04 13:45:09;;;;;;;2.22;0.77;;;16.00;47.00;;;;;;5071689;28;20154;-68
2022/05/04 13:47:35;;;;;;;1.67;0.30;;;16.00;47.00;;;;;;5071920;28;20113;-68